createdAt,value
2023-02-11T00:01:32.420Z,-1.07
2023-02-11T00:04:00.701Z,-1.10
2023-02-11T00:06:29.553Z,-1.15
2023-02-11T00:08:57.608Z,-1.19
2023-02-11T00:11:30.266Z,-1.23
2023-02-11T00:13:59.426Z,-1.27
2023-02-11T00:16:27.385Z,-1.31
2023-02-11T00:18:55.752Z,-1.32
2023-02-11T00:21:25.433Z,-1.32
2023-02-11T00:23:54.956Z,-1.29
2023-02-11T00:26:24.945Z,-1.25
2023-02-11T00:28:53.601Z,-1.22
2023-02-11T00:31:22.188Z,-1.20
2023-02-11T00:33:50.112Z,-1.18
2023-02-11T00:36:20.642Z,-1.19
2023-02-11T00:38:49.953Z,-1.21
2023-02-11T00:41:18.258Z,-1.22
2023-02-11T00:43:46.380Z,-1.23
2023-02-11T00:46:14.813Z,-1.27
2023-02-11T00:48:42.980Z,-1.28
2023-02-11T00:51:11.024Z,-1.29
2023-02-11T00:53:38.941Z,-1.28
2023-02-11T00:56:06.967Z,-1.24
2023-02-11T00:58:36.556Z,-1.18
2023-02-11T01:01:05.336Z,-1.11
2023-02-11T01:03:34.218Z,-1.05
2023-02-11T01:06:02.178Z,-1.01
2023-02-11T01:08:30.536Z,-0.99
2023-02-11T01:11:05.603Z,-0.97
2023-02-11T01:13:35.307Z,-0.97
2023-02-11T01:16:03.745Z,-0.98
2023-02-11T01:18:32.221Z,-1.00
2023-02-11T01:21:00.132Z,-1.01
2023-02-11T01:23:28.055Z,-1.02
2023-02-11T01:25:56.473Z,-1.02
2023-02-11T01:28:25.497Z,-1.02
2023-02-11T01:30:53.775Z,-0.98
2023-02-11T01:33:22.550Z,-0.91
2023-02-11T01:35:50.967Z,-0.86
2023-02-11T01:38:25.321Z,-0.80
2023-02-11T01:40:56.312Z,-0.76
2023-02-11T01:43:24.829Z,-0.74
2023-02-11T01:45:54.473Z,-0.73
2023-02-11T01:48:46.365Z,-0.73
2023-02-11T01:51:18.721Z,-0.75
2023-02-11T01:54:05.393Z,-0.78
2023-02-11T01:56:53.494Z,-0.81
2023-02-11T01:59:28.968Z,-0.83
2023-02-11T02:01:58.617Z,-0.84
2023-02-11T02:04:31.552Z,-0.83
2023-02-11T02:07:03.065Z,-0.79
2023-02-11T02:09:33.707Z,-0.72
2023-02-11T02:12:01.541Z,-0.64
2023-02-11T02:14:30.330Z,-0.57
2023-02-11T02:16:58.418Z,-0.52
2023-02-11T02:20:02.387Z,-0.51
2023-02-11T02:22:42.359Z,-0.49
2023-02-11T02:25:16.053Z,-0.52
2023-02-11T02:27:46.732Z,-0.57
2023-02-11T02:30:27.055Z,-0.66
2023-02-11T02:33:23.913Z,-0.77
2023-02-11T02:36:18.914Z,-0.88
2023-02-11T02:38:49.596Z,-0.99
2023-02-11T02:41:19.221Z,-1.06
2023-02-11T02:43:50.716Z,-1.08
2023-02-11T02:46:28.868Z,-1.10
2023-02-11T02:48:57.161Z,-1.11
2023-02-11T02:52:02.794Z,-1.14
2023-02-11T02:54:58.175Z,-1.18
2023-02-11T02:57:32.883Z,-1.25
2023-02-11T03:00:29.851Z,-1.32
2023-02-11T03:03:05.436Z,-1.43
2023-02-11T03:05:57.319Z,-1.49
2023-02-11T03:08:36.894Z,-1.55
2023-02-11T03:11:04.880Z,-1.57
2023-02-11T03:13:34.268Z,-1.55
2023-02-11T03:16:19.666Z,-1.50
2023-02-11T03:18:53.367Z,-1.42
2023-02-11T03:21:21.346Z,-1.33
2023-02-11T03:23:57.066Z,-1.23
2023-02-11T03:26:31.636Z,-1.16
2023-02-11T03:29:04.185Z,-1.10
2023-02-11T03:31:59.407Z,-1.09
2023-02-11T03:34:38.435Z,-1.09
2023-02-11T03:37:10.051Z,-1.12
2023-02-11T03:39:46.911Z,-1.15
2023-02-11T03:42:15.288Z,-1.16
2023-02-11T03:45:16.777Z,-1.16
2023-02-11T03:47:48.744Z,-1.15
2023-02-11T03:50:16.615Z,-1.09
2023-02-11T03:52:44.689Z,-1.02
2023-02-11T03:55:15.532Z,-0.93
2023-02-11T03:57:43.983Z,-0.86
2023-02-11T04:00:13.282Z,-0.84
2023-02-11T04:02:42.020Z,-0.83
2023-02-11T04:05:11.453Z,-0.84
2023-02-11T04:07:39.323Z,-0.86
2023-02-11T04:10:07.745Z,-0.89
2023-02-11T04:12:35.829Z,-0.92
2023-02-11T04:15:03.904Z,-0.95
2023-02-11T04:17:32.134Z,-0.97
2023-02-11T04:19:59.951Z,-0.96
2023-02-11T04:22:27.950Z,-0.92
2023-02-11T04:24:55.864Z,-0.86
2023-02-11T04:27:24.586Z,-0.78
2023-02-11T04:29:54.154Z,-0.72
2023-02-11T04:32:22.526Z,-0.67
2023-02-11T04:34:52.061Z,-0.64
2023-02-11T04:37:21.324Z,-0.65
2023-02-11T04:39:49.117Z,-0.68
2023-02-11T04:42:17.288Z,-0.72
2023-02-11T04:44:45.092Z,-0.77
2023-02-11T04:47:15.263Z,-0.83
2023-02-11T04:49:43.410Z,-0.89
2023-02-11T04:52:11.943Z,-0.94
2023-02-11T04:54:40.801Z,-0.97
2023-02-11T04:57:08.941Z,-0.96
2023-02-11T04:59:37.963Z,-0.95
2023-02-11T05:02:06.321Z,-0.92
2023-02-11T05:04:35.008Z,-0.91
2023-02-11T05:07:03.597Z,-0.93
2023-02-11T05:09:35.306Z,-0.98
2023-02-11T05:12:04.670Z,-1.04
2023-02-11T05:14:33.329Z,-1.12
2023-02-11T05:17:01.323Z,-1.20
2023-02-11T05:19:31.282Z,-1.31
2023-02-11T05:22:03.103Z,-1.42
2023-02-11T05:24:32.398Z,-1.53
2023-02-11T05:27:00.623Z,-1.64
2023-02-11T05:29:28.569Z,-1.71
2023-02-11T05:32:00.197Z,-1.72
2023-02-11T05:34:28.510Z,-1.69
2023-02-11T05:36:56.557Z,-1.60
2023-02-11T05:39:24.518Z,-1.53
2023-02-11T05:41:52.361Z,-1.48
2023-02-11T05:44:20.318Z,-1.42
2023-02-11T05:46:49.220Z,-1.36
2023-02-11T13:00:40.480Z,2.57
2023-02-11T13:03:13.771Z,2.75
2023-02-11T13:18:56.534Z,2.67
2023-02-11T13:21:50.911Z,2.70
2023-02-11T13:24:38.581Z,2.73
2023-02-11T13:27:24.633Z,2.71
2023-02-11T13:30:20.479Z,2.69
2023-02-11T13:32:55.922Z,2.63
2023-02-11T13:35:34.242Z,2.57
2023-02-11T13:38:17.143Z,2.54
2023-02-11T13:40:45.348Z,2.53
2023-02-11T13:43:24.191Z,2.50
2023-02-11T13:45:52.103Z,2.42
2023-02-11T13:48:22.457Z,2.34
2023-02-11T13:50:55.933Z,2.27
2023-02-11T13:53:23.881Z,2.22
2023-02-11T13:55:53.186Z,2.21
2023-02-11T16:25:19.078Z,0.64
2023-02-11T16:27:52.014Z,0.77
2023-02-11T16:30:28.966Z,0.77
2023-02-11T16:32:56.914Z,0.77
2023-02-11T16:35:24.759Z,0.77
2023-02-11T16:37:52.883Z,0.77
2023-02-11T16:40:20.819Z,0.78
2023-02-11T16:42:49.916Z,0.79
2023-02-11T16:45:17.764Z,0.80
2023-02-11T16:47:46.217Z,0.80
2023-02-11T16:50:24.299Z,0.80
2023-02-11T16:52:52.449Z,0.80
2023-02-11T16:55:22.055Z,0.79
2023-02-11T16:57:50.424Z,0.77
2023-02-11T17:00:18.742Z,0.76
2023-02-11T17:02:46.868Z,0.74
2023-02-11T17:05:20.073Z,0.72
2023-02-11T17:07:48.826Z,0.70
2023-02-11T17:10:18.837Z,0.70
2023-02-11T17:12:48.690Z,0.70
2023-02-11T17:15:16.928Z,0.71
2023-02-11T17:17:45.883Z,0.73
2023-02-11T17:20:14.487Z,0.75
2023-02-11T17:22:42.404Z,0.75
2023-02-11T17:25:10.591Z,0.75
2023-02-11T17:27:38.660Z,0.74
2023-02-11T17:30:07.598Z,0.74
2023-02-11T17:32:36.548Z,0.73
2023-02-11T17:35:07.036Z,0.73
2023-02-11T17:37:35.697Z,0.74
2023-02-11T17:40:03.799Z,0.76
2023-02-11T17:42:32.150Z,0.78
2023-02-11T17:45:00.117Z,0.79
2023-02-11T17:47:28.341Z,0.81
2023-02-11T17:49:56.216Z,0.82
2023-02-11T17:52:24.405Z,0.81
2023-02-11T17:54:52.255Z,0.81
2023-02-11T17:57:20.284Z,0.80
2023-02-11T17:59:48.310Z,0.79
2023-02-11T18:02:16.412Z,0.78
2023-02-11T18:04:45.353Z,0.76
2023-02-11T18:07:13.467Z,0.76
2023-02-11T18:09:43.942Z,0.76
2023-02-11T18:12:11.952Z,0.78
2023-02-11T18:14:40.651Z,0.80
2023-02-11T18:17:08.908Z,0.82
2023-02-11T18:19:37.658Z,0.84
2023-02-11T18:22:05.650Z,0.85
2023-02-11T18:24:35.088Z,0.85
2023-02-11T18:27:03.100Z,0.84
2023-02-11T18:29:31.628Z,0.82
2023-02-11T18:31:59.524Z,0.80
2023-02-11T18:34:28.671Z,0.79
2023-02-11T18:36:57.050Z,0.78
2023-02-11T18:39:26.464Z,0.76
2023-02-11T18:41:56.795Z,0.76
2023-02-11T18:44:26.139Z,0.77
2023-02-11T18:46:54.067Z,0.79
2023-02-11T18:49:22.157Z,0.81
2023-02-11T18:51:49.984Z,0.84
2023-02-11T18:54:20.466Z,0.83
2023-02-11T18:56:48.819Z,0.83
2023-02-11T18:59:17.376Z,0.81
2023-02-11T19:01:46.951Z,0.79
2023-02-11T19:04:19.765Z,0.77
2023-02-11T19:06:49.522Z,0.75
2023-02-11T19:09:22.126Z,0.74
2023-02-11T19:11:50.494Z,0.74
2023-02-11T19:14:26.335Z,0.75
2023-02-11T19:16:55.903Z,0.75
2023-02-11T19:19:25.771Z,0.76
2023-02-11T19:21:56.072Z,0.76
2023-02-11T19:24:24.373Z,0.75
2023-02-11T19:26:55.212Z,0.73
2023-02-11T19:29:23.436Z,0.71
2023-02-11T19:31:51.559Z,0.71
2023-02-11T19:34:22.720Z,0.70
2023-02-11T19:36:55.076Z,0.70
2023-02-11T19:39:24.796Z,0.69
2023-02-11T19:41:52.803Z,0.68
2023-02-11T19:44:20.811Z,0.67
2023-02-11T19:46:50.246Z,0.63
2023-02-11T19:49:23.106Z,0.60
2023-02-11T19:51:52.217Z,0.58
2023-02-11T19:54:20.457Z,0.57
2023-02-11T19:56:48.860Z,0.58
2023-02-11T19:59:16.745Z,0.58
2023-02-11T20:01:47.754Z,0.59
2023-02-11T20:04:16.852Z,0.59
2023-02-11T20:06:45.288Z,0.58
2023-02-11T20:09:14.487Z,0.56
2023-02-11T20:11:42.630Z,0.54
2023-02-11T20:14:12.836Z,0.53
2023-02-11T20:16:48.537Z,0.53
2023-02-11T20:19:21.526Z,0.55
2023-02-11T20:21:51.988Z,0.56
2023-02-11T20:24:20.119Z,0.57
2023-02-11T20:26:48.871Z,0.57
2023-02-11T20:29:17.828Z,0.55
2023-02-11T20:31:46.110Z,0.52
2023-02-11T20:34:14.357Z,0.51
2023-02-11T20:36:42.771Z,0.49
2023-02-11T20:39:10.839Z,0.47
2023-02-11T20:41:42.036Z,0.47
2023-02-11T20:44:10.394Z,0.46
2023-02-11T20:46:41.085Z,0.46
2023-02-11T20:49:12.942Z,0.45
2023-02-11T20:51:41.270Z,0.43
2023-02-11T20:54:17.778Z,0.43
2023-02-11T20:56:51.147Z,0.43
2023-02-11T20:59:20.907Z,0.43
2023-02-11T21:01:50.905Z,0.44
2023-02-11T21:04:20.387Z,0.45
2023-02-11T21:06:50.048Z,0.45
2023-02-11T21:09:19.950Z,0.44
2023-02-11T21:11:51.608Z,0.41
2023-02-11T21:14:20.749Z,0.41
2023-02-11T21:16:48.869Z,0.39
2023-02-11T21:19:16.908Z,0.39
2023-02-11T21:21:45.046Z,0.40
2023-02-11T21:24:12.897Z,0.40
2023-02-11T21:26:42.610Z,0.41
2023-02-11T21:29:10.976Z,0.40
2023-02-11T21:31:39.138Z,0.38
2023-02-11T21:34:07.409Z,0.37
2023-02-11T21:36:36.151Z,0.36
2023-02-11T21:39:05.620Z,0.37
2023-02-11T21:41:33.966Z,0.37
2023-02-11T21:44:01.912Z,0.37
2023-02-11T21:46:30.824Z,0.37
2023-02-11T21:49:00.407Z,0.36
2023-02-11T21:51:28.436Z,0.35
2023-02-11T21:53:57.745Z,0.34
2023-02-11T21:56:28.634Z,0.33
2023-02-11T21:58:57.537Z,0.33
2023-02-11T22:01:30.432Z,0.31
2023-02-11T22:03:58.522Z,0.28
2023-02-11T22:06:27.880Z,0.26
2023-02-11T22:08:57.064Z,0.25
2023-02-11T22:11:25.166Z,0.23
2023-02-11T22:13:55.161Z,0.25
2023-02-11T22:16:25.495Z,0.25
2023-02-11T22:18:53.471Z,0.27
2023-02-11T22:21:22.228Z,0.26
2023-02-11T22:23:50.614Z,0.27
2023-02-11T22:26:21.118Z,0.27
2023-02-11T22:28:50.464Z,0.27
2023-02-11T22:31:20.586Z,0.27
2023-02-11T22:33:49.057Z,0.27
2023-02-11T22:36:27.745Z,0.27
2023-02-11T22:38:56.083Z,0.26
2023-02-11T22:41:24.625Z,0.24
2023-02-11T22:43:52.549Z,0.23
2023-02-11T22:46:20.784Z,0.22
2023-02-11T22:48:48.910Z,0.23
2023-02-11T22:51:27.990Z,0.24
2023-02-11T22:53:59.571Z,0.26
2023-02-11T22:56:28.349Z,0.27
2023-02-11T22:59:00.916Z,0.27
2023-02-11T23:01:29.448Z,0.26
2023-02-11T23:03:59.060Z,0.25
2023-02-11T23:06:27.070Z,0.26
2023-02-11T23:08:55.018Z,0.27
2023-02-11T23:11:24.419Z,0.28
2023-02-11T23:13:52.763Z,0.27
2023-02-11T23:16:23.021Z,0.25
2023-02-11T23:18:51.254Z,0.23
2023-02-11T23:21:22.180Z,0.22
2023-02-11T23:23:54.274Z,0.21
2023-02-11T23:26:22.161Z,0.21
2023-02-11T23:28:50.659Z,0.23
2023-02-11T23:31:21.084Z,0.22
2023-02-11T23:33:49.122Z,0.21
2023-02-11T23:36:17.432Z,0.21
2023-02-11T23:38:47.509Z,0.22
2023-02-11T23:41:15.939Z,0.24
2023-02-11T23:44:05.057Z,0.26
2023-02-11T23:46:38.828Z,0.28
2023-02-11T23:49:06.935Z,0.28
2023-02-11T23:51:34.897Z,0.29
2023-02-11T23:54:03.232Z,0.31
2023-02-11T23:56:31.294Z,0.32
2023-02-11T23:58:59.523Z,0.34
